Aeroporto :
LOGIN :

Iscrizione | Disclaimer

   EN    FR    IT 

 










Sommario :    VFR   VFR Marginale   IFR   IFR Intensivo   IFR Molto Intensivo
Visibilità : 
Base nubi : 
>= 8 km
>= 3000ft
5 / 8 km
1000 / 3000 ft
1500m / 5 km
500 / 1000 ft
800 / 1500m
200 / 500 ft
< 800m
< 200 ft
Simboli :   Temporali  Nebbia  Neve Forte  Precipitazioni Forti  Vento > 20 kt
SIGMETs :   Varie  Temporali  Ghiacco  Turbolenza  Onda orograficha  Ceneri Vulcaniche







- Altitudine del aeroporto : 464 ft
- Codice IATA : EVX
- Carte del aeroporto


LFOE - Evreux

ULTIMO METAR :
  • 220000Z AUTO 24003KT 6000 NSC 12/11 Q1012 BECMG 4000 BR

METARs OBSOLETI :
  • 212330Z AUTO VRB02KT 7000 NSC 13/12 Q1013 BECMG 4000 BR
  • 212300Z AUTO 30004KT 7000 NSC 13/12 Q1013 BECMG 4000 BR
  • 212230Z AUTO 28003KT CAVOK 13/12 Q1013 BECMG 4000 BR
  • 212200Z AUTO 27003KT CAVOK 14/12 Q1013 NOSIG
  • 212130Z AUTO 29003KT CAVOK 14/11 Q1013 NOSIG

TAF TAF LFOE
Valido dal 21 a 21 ore il 22 a 21 ore UTC


212000Z 2121/2221 34005KT CAVOK
BECMG 2200/2202 4000 BR
PROB30
TEMPO 2203/2207 0500 BCFG VV///
BECMG 2207/2209 9999 NSW SCT020
BECMG 2209/2212 01010G20KT SCT030TCU
TEMPO 2213/2218 VRB15G25KT 4000 -SHRA SCT010 BKN030CB
Nessun NOTAM noto per questo aeroporto.



MetMap, La meteo Aeronautica in un colpo d'occhio ! - Copyright ORBIFLY Dicembre 2007 - Disclaimer

ORBIFLY MET'MAP TEAM :

Programmazione e sviluppo : Alexandra Zaïnal
Concezione e sviluppo : Baudouin d'Aumeries
Co-Programmazione e sviluppo : Marc-Olivier Méhu
Supporto tecnico e logistico : Manuel Goepfert
Aiuto per la traduzione : Arnaldo La Scala

Contatto : metmap@orbifly.com




FONTI E CREDITI :

   NOAA